Time;durP1;ratioP1;P1;durP2;ratioP2;P2;SDS_P1;SDS_P2;PMS_P1;PMS_P2;Temp;Humidity;BMP_temperature;BMP_pressure;BME280_temperature;BME280_humidity;BME280_pressure;Samples;Min_cycle;Max_cycle;Signal;HPM_P1;HPM_P2
2024/01/21 00:01:23;;;;;;;12.40;7.22;;;0.40;99.90;;;;;;6150272;23;20017;-66
2024/01/21 00:03:49;;;;;;;15.40;7.68;;;0.40;99.90;;;;;;6177084;23;20020;-66
2024/01/21 00:06:15;;;;;;;16.63;7.85;;;0.40;99.90;;;;;;6150594;23;20104;-66
2024/01/21 00:08:40;;;;;;;11.55;7.30;;;0.40;99.90;;;;;;6176573;23;20021;-66
2024/01/21 00:11:07;;;;;;;12.18;7.40;;;0.40;99.90;;;;;;6149627;23;20074;-66
2024/01/21 00:13:33;;;;;;;13.98;7.50;;;0.40;99.90;;;;;;6177365;23;20020;-67
2024/01/21 00:15:59;;;;;;;17.15;7.85;;;0.40;99.90;;;;;;6149884;23;20548;-66
2024/01/21 00:18:25;;;;;;;13.43;7.50;;;0.30;99.90;;;;;;6149484;23;20508;-66
2024/01/21 00:20:50;;;;;;;14.73;7.38;;;0.30;99.90;;;;;;6177495;23;20025;-66
2024/01/21 00:23:16;;;;;;;14.38;7.80;;;0.30;99.90;;;;;;6176395;23;20467;-66
2024/01/21 00:25:42;;;;;;;13.63;6.18;;;0.30;99.90;;;;;;6175452;23;20012;-66
2024/01/21 00:28:08;;;;;;;11.65;7.10;;;0.30;99.90;;;;;;6148959;23;20031;-65
2024/01/21 00:30:34;;;;;;;13.35;6.90;;;0.30;99.90;;;;;;6148059;23;20528;-66
2024/01/21 00:33:06;;;;;;;16.10;7.50;;;0.30;99.90;;;;;;6175013;23;20446;-66
2024/01/21 00:35:31;;;;;;;14.95;7.63;;;0.40;99.90;;;;;;6150128;23;20109;-66
2024/01/21 00:37:57;;;;;;;12.20;6.50;;;0.40;99.90;;;;;;6177243;23;20056;-67
2024/01/21 00:40:23;;;;;;;13.95;7.45;;;0.30;99.90;;;;;;6176320;23;20036;-66
2024/01/21 00:42:49;;;;;;;13.88;7.30;;;0.40;99.90;;;;;;6177047;23;20628;-66
2024/01/21 00:45:14;;;;;;;13.40;7.20;;;0.40;99.90;;;;;;6149127;23;20025;-66
2024/01/21 00:47:40;;;;;;;14.75;7.15;;;0.40;99.90;;;;;;6175063;23;20439;-66
2024/01/21 00:50:06;;;;;;;10.98;6.20;;;0.40;99.90;;;;;;6177426;23;20013;-67
2024/01/21 00:52:32;;;;;;;12.20;6.72;;;0.40;99.90;;;;;;6150832;23;20060;-66
2024/01/21 00:54:57;;;;;;;11.05;6.10;;;0.40;99.90;;;;;;6175762;23;20032;-67
2024/01/21 00:57:23;;;;;;;12.60;6.65;;;0.40;99.90;;;;;;6150741;23;20342;-66
2024/01/21 00:59:49;;;;;;;11.85;6.88;;;0.40;99.90;;;;;;6143921;23;20628;-66
2024/01/21 01:02:14;;;;;;;9.68;6.28;;;0.50;99.90;;;;;;6148797;23;20096;-66
2024/01/21 01:04:40;;;;;;;10.00;5.80;;;0.50;99.90;;;;;;6149163;23;20083;-66
2024/01/21 01:07:06;;;;;;;13.25;6.80;;;0.50;99.90;;;;;;6176574;23;20033;-66
2024/01/21 01:09:31;;;;;;;10.95;6.03;;;0.50;99.90;;;;;;6150246;23;20017;-66
2024/01/21 01:11:57;;;;;;;14.75;7.03;;;0.50;99.90;;;;;;6148877;23;20092;-66
2024/01/21 01:14:23;;;;;;;13.25;6.53;;;0.50;99.90;;;;;;6149808;23;20024;-66
2024/01/21 01:16:49;;;;;;;9.95;6.05;;;0.50;99.90;;;;;;6174534;23;20087;-66
2024/01/21 01:19:14;;;;;;;11.35;5.85;;;0.50;99.90;;;;;;6176561;23;20442;-66
2024/01/21 01:21:40;;;;;;;11.52;5.82;;;0.50;99.90;;;;;;6149123;23;20059;-66
2024/01/21 01:24:06;;;;;;;9.57;5.88;;;0.60;99.90;;;;;;6176694;23;20025;-66
2024/01/21 01:26:31;;;;;;;10.70;6.35;;;0.60;99.90;;;;;;6149875;23;20021;-66
2024/01/21 01:28:58;;;;;;;13.93;6.20;;;0.60;99.90;;;;;;6148642;23;20159;-66
2024/01/21 01:31:23;;;;;;;8.77;5.78;;;0.60;99.90;;;;;;6147611;23;20013;-66
2024/01/21 01:33:50;;;;;;;11.50;6.18;;;0.60;99.90;;;;;;6175941;23;20052;-66
2024/01/21 01:36:15;;;;;;;12.35;6.80;;;0.60;99.90;;;;;;6149247;23;20021;-66
2024/01/21 01:38:41;;;;;;;10.15;5.85;;;0.60;99.90;;;;;;6175779;23;20055;-66
2024/01/21 01:41:06;;;;;;;12.50;6.15;;;0.60;99.90;;;;;;6149437;23;20029;-66
2024/01/21 01:43:32;;;;;;;12.38;5.88;;;0.60;99.90;;;;;;6149965;23;20386;-66
2024/01/21 01:46:00;;;;;;;11.68;6.25;;;0.60;99.90;;;;;;6148238;23;20025;-66
2024/01/21 01:48:30;;;;;;;10.23;6.03;;;0.50;99.90;;;;;;6175084;23;20036;-67
2024/01/21 01:50:58;;;;;;;11.68;5.75;;;0.50;99.90;;;;;;6176452;23;20071;-66
2024/01/21 01:53:23;;;;;;;10.05;5.13;;;0.50;99.90;;;;;;6149535;23;20021;-66
2024/01/21 01:55:49;;;;;;;10.05;5.15;;;0.50;99.90;;;;;;6176917;23;20032;-66
2024/01/21 01:58:16;;;;;;;8.82;4.78;;;0.50;99.90;;;;;;6176164;23;20422;-66
2024/01/21 02:00:42;;;;;;;9.68;5.13;;;0.50;99.90;;;;;;6141419;23;20587;-66
2024/01/21 02:03:12;;;;;;;9.85;5.53;;;0.40;99.90;;;;;;6150755;23;20052;-66
2024/01/21 02:05:37;;;;;;;8.85;5.13;;;0.40;99.90;;;;;;6150718;23;20021;-66
2024/01/21 02:08:03;;;;;;;10.13;4.97;;;0.40;99.90;;;;;;6151701;23;20116;-66
2024/01/21 02:10:30;;;;;;;7.97;5.18;;;0.40;99.90;;;;;;6151553;23;20017;-66
2024/01/21 02:12:56;;;;;;;8.82;5.13;;;0.40;99.90;;;;;;6147233;23;20064;-66
2024/01/21 02:15:22;;;;;;;8.35;4.90;;;0.40;99.90;;;;;;6174767;23;20068;-66
2024/01/21 02:17:48;;;;;;;10.18;4.68;;;0.40;99.90;;;;;;6148409;23;20358;-66
2024/01/21 02:20:14;;;;;;;9.57;4.78;;;0.30;99.90;;;;;;6150995;23;20111;-66
2024/01/21 02:22:40;;;;;;;10.30;5.20;;;0.40;99.90;;;;;;6177688;23;20009;-66
2024/01/21 02:25:07;;;;;;;7.93;4.70;;;0.40;99.90;;;;;;6148649;23;20028;-66
2024/01/21 02:27:33;;;;;;;8.25;4.35;;;0.40;99.90;;;;;;6150086;23;20085;-66
2024/01/21 02:29:59;;;;;;;11.88;5.00;;;0.40;99.90;;;;;;6177184;23;20017;-66
2024/01/21 02:32:25;;;;;;;8.63;4.53;;;0.40;99.90;;;;;;6149718;23;20013;-66
2024/01/21 02:34:50;;;;;;;8.15;4.63;;;0.40;99.90;;;;;;6150709;23;20021;-66
2024/01/21 02:37:16;;;;;;;11.07;4.57;;;0.50;99.90;;;;;;6176959;23;20021;-66
2024/01/21 02:39:42;;;;;;;8.85;4.80;;;0.50;99.90;;;;;;6178044;23;20017;-67
2024/01/21 02:42:07;;;;;;;10.05;5.18;;;0.50;99.90;;;;;;6149823;23;20580;-67
2024/01/21 02:44:33;;;;;;;7.28;4.40;;;0.50;99.90;;;;;;6177334;23;20017;-67
2024/01/21 02:46:59;;;;;;;7.13;4.20;;;0.50;99.90;;;;;;6175571;23;20116;-67
2024/01/21 02:49:28;;;;;;;9.27;4.70;;;0.50;99.90;;;;;;6177218;23;20021;-67
2024/01/21 02:51:54;;;;;;;12.50;4.93;;;0.50;99.90;;;;;;6151600;23;20060;-67
2024/01/21 02:54:20;;;;;;;8.90;4.85;;;0.60;99.90;;;;;;6175809;23;20096;-66
2024/01/21 02:56:46;;;;;;;8.02;4.68;;;0.60;99.90;;;;;;6175775;23;20083;-67
2024/01/21 02:59:11;;;;;;;9.18;4.53;;;0.60;99.90;;;;;;6145396;23;20350;-67
2024/01/21 03:01:37;;;;;;;8.00;4.45;;;0.60;99.90;;;;;;6148934;23;20040;-67
2024/01/21 03:04:03;;;;;;;7.65;4.60;;;0.60;99.90;;;;;;6150954;23;20092;-67
2024/01/21 03:06:28;;;;;;;9.70;4.68;;;0.60;99.90;;;;;;6147171;23;20027;-67
2024/01/21 03:08:54;;;;;;;12.57;4.60;;;0.60;99.90;;;;;;6148899;23;20754;-67
2024/01/21 03:11:19;;;;;;;10.45;4.40;;;0.70;99.90;;;;;;6150353;23;20382;-67
2024/01/21 03:13:45;;;;;;;9.80;4.43;;;0.60;99.90;;;;;;6147992;23;20346;-67
2024/01/21 03:16:11;;;;;;;7.50;4.47;;;0.70;99.90;;;;;;6175540;23;20070;-67
2024/01/21 03:18:38;;;;;;;8.68;4.63;;;0.60;99.90;;;;;;6176012;23;20020;-66
2024/01/21 03:21:07;;;;;;;8.95;4.85;;;0.60;99.90;;;;;;6150349;23;20043;-67
2024/01/21 03:23:34;;;;;;;10.48;5.25;;;0.60;99.90;;;;;;6149119;23;20423;-67
2024/01/21 03:25:59;;;;;;;10.98;5.03;;;0.60;99.90;;;;;;6175518;23;20075;-67
2024/01/21 03:28:25;;;;;;;12.35;6.13;;;0.60;99.90;;;;;;6176190;23;20014;-67
2024/01/21 03:30:51;;;;;;;8.88;4.90;;;0.50;99.90;;;;;;6148224;23;20025;-67
2024/01/21 03:33:17;;;;;;;9.85;4.70;;;0.50;99.90;;;;;;6149418;23;20021;-67
2024/01/21 03:35:42;;;;;;;11.68;5.47;;;0.50;99.90;;;;;;6176679;23;20021;-67
2024/01/21 03:38:08;;;;;;;9.68;5.53;;;0.50;99.90;;;;;;6176805;23;20095;-67
2024/01/21 03:40:33;;;;;;;9.13;4.78;;;0.50;99.90;;;;;;6148661;23;20079;-67
2024/01/21 03:42:59;;;;;;;8.20;5.00;;;0.50;99.90;;;;;;6176563;23;20462;-67
2024/01/21 03:45:25;;;;;;;10.25;5.65;;;0.60;99.90;;;;;;6148756;23;20540;-67
2024/01/21 03:47:50;;;;;;;8.23;4.28;;;0.60;99.90;;;;;;6149006;23;20021;-67
2024/01/21 03:50:18;;;;;;;8.35;4.75;;;0.60;99.90;;;;;;6149628;23;20397;-67
2024/01/21 03:52:45;;;;;;;9.35;4.82;;;0.50;99.90;;;;;;6149189;23;20505;-67
2024/01/21 03:55:10;;;;;;;9.35;5.07;;;0.50;99.90;;;;;;6175888;23;20048;-67
2024/01/21 03:57:36;;;;;;;9.13;4.82;;;0.60;99.90;;;;;;6149823;23;20028;-67
2024/01/21 04:00:03;;;;;;;9.23;4.65;;;0.60;99.90;;;;;;6170342;23;20680;-67
2024/01/21 04:02:30;;;;;;;8.80;4.40;;;0.60;99.90;;;;;;6174702;23;20032;-67
2024/01/21 04:04:56;;;;;;;11.07;4.50;;;0.60;99.90;;;;;;6176043;23;20021;-67
2024/01/21 04:07:21;;;;;;;9.93;5.13;;;0.60;99.90;;;;;;6174999;23;20013;-67
2024/01/21 04:09:47;;;;;;;7.18;3.90;;;0.60;99.90;;;;;;6148643;23;20109;-67
2024/01/21 04:12:13;;;;;;;8.70;4.05;;;0.70;99.90;;;;;;6175814;23;20018;-67
2024/01/21 04:14:39;;;;;;;7.18;3.70;;;0.70;99.90;;;;;;6150416;23;20600;-67
2024/01/21 04:17:04;;;;;;;5.70;3.33;;;0.70;99.90;;;;;;6147663;23;20096;-67
2024/01/21 04:19:30;;;;;;;7.05;3.53;;;0.80;99.90;;;;;;6149113;23;20024;-67
2024/01/21 04:21:57;;;;;;;6.78;3.42;;;0.80;99.90;;;;;;6149777;23;20087;-67
2024/01/21 04:24:23;;;;;;;9.65;3.90;;;0.90;99.90;;;;;;6148567;23;20101;-67
2024/01/21 04:26:48;;;;;;;5.57;3.05;;;0.90;99.90;;;;;;6148848;23;20048;-67
2024/01/21 04:29:14;;;;;;;6.38;3.47;;;0.90;99.90;;;;;;6176698;23;20028;-67
2024/01/21 04:31:43;;;;;;;7.55;3.63;;;1.00;99.90;;;;;;6174694;23;20125;-67
2024/01/21 04:34:09;;;;;;;5.72;3.20;;;1.10;99.90;;;;;;6149313;23;20025;-66
2024/01/21 04:36:35;;;;;;;6.65;3.30;;;1.10;99.90;;;;;;6149997;23;20052;-67
2024/01/21 04:39:01;;;;;;;5.85;3.17;;;1.10;99.90;;;;;;6176218;23;20016;-67
2024/01/21 04:41:26;;;;;;;5.45;2.88;;;1.20;99.90;;;;;;6148389;23;20063;-67
2024/01/21 04:43:52;;;;;;;6.50;3.25;;;1.20;99.90;;;;;;6150700;23;20017;-67
2024/01/21 04:46:18;;;;;;;10.45;4.93;;;1.30;99.90;;;;;;6147377;23;20072;-67
2024/01/21 04:48:43;;;;;;;6.28;3.45;;;1.30;99.90;;;;;;6149356;23;20013;-67
2024/01/21 04:51:10;;;;;;;5.30;2.95;;;1.40;99.90;;;;;;6149641;23;20051;-67
2024/01/21 04:53:39;;;;;;;6.78;3.25;;;1.40;99.90;;;;;;6175675;23;20029;-67
2024/01/21 04:56:06;;;;;;;5.38;2.85;;;1.40;99.90;;;;;;6174128;23;20017;-67
2024/01/21 04:58:35;;;;;;;6.95;3.42;;;1.50;99.90;;;;;;6144763;23;20021;-67
2024/01/21 05:01:00;;;;;;;6.25;2.90;;;1.50;99.90;;;;;;6174444;23;20056;-67
2024/01/21 05:03:26;;;;;;;6.97;3.30;;;1.50;99.90;;;;;;6148646;23;20048;-67
2024/01/21 05:05:53;;;;;;;5.93;3.08;;;1.50;99.90;;;;;;6176961;23;20028;-67
2024/01/21 05:08:18;;;;;;;6.13;3.25;;;1.50;99.90;;;;;;6147787;23;20013;-67
2024/01/21 05:10:44;;;;;;;5.78;2.88;;;1.50;99.90;;;;;;6175654;23;20021;-66
2024/01/21 05:13:09;;;;;;;4.97;2.70;;;1.60;99.90;;;;;;6149228;23;20021;-66
2024/01/21 05:15:35;;;;;;;5.30;2.60;;;1.60;99.90;;;;;;6149315;23;20021;-66
2024/01/21 05:18:01;;;;;;;5.45;2.90;;;1.60;99.90;;;;;;6175975;23;20056;-66
2024/01/21 05:20:26;;;;;;;6.70;3.15;;;1.60;99.90;;;;;;6148903;23;20025;-66
2024/01/21 05:22:52;;;;;;;5.82;3.03;;;1.60;99.90;;;;;;6175596;23;20013;-66
2024/01/21 05:25:18;;;;;;;8.18;3.13;;;1.70;99.90;;;;;;6175313;23;20033;-66
2024/01/21 05:27:43;;;;;;;7.20;3.17;;;1.70;99.90;;;;;;6148193;23;20021;-66
2024/01/21 05:30:11;;;;;;;7.13;3.50;;;1.70;99.90;;;;;;6175125;23;20013;-66
2024/01/21 05:32:37;;;;;;;8.23;3.30;;;1.70;99.90;;;;;;6149064;23;20021;-66
2024/01/21 05:35:02;;;;;;;7.15;3.53;;;1.70;99.90;;;;;;6149574;23;20088;-66
2024/01/21 05:37:28;;;;;;;5.72;2.72;;;1.70;99.90;;;;;;6150824;23;20323;-66
2024/01/21 05:39:54;;;;;;;7.05;3.15;;;1.70;99.90;;;;;;6178087;23;20019;-66
2024/01/21 05:42:19;;;;;;;7.60;3.22;;;1.70;99.90;;;;;;6149512;23;20585;-66
2024/01/21 05:44:45;;;;;;;11.30;3.45;;;1.70;99.90;;;;;;6177877;23;20032;-66
2024/01/21 05:47:11;;;;;;;8.18;3.50;;;1.70;99.90;;;;;;6150042;23;20083;-66
2024/01/21 05:49:36;;;;;;;5.55;3.08;;;1.70;99.90;;;;;;6176645;23;20103;-66
2024/01/21 05:52:02;;;;;;;5.68;3.17;;;1.60;99.90;;;;;;6151463;23;20357;-66
2024/01/21 05:54:28;;;;;;;7.85;4.00;;;1.60;99.90;;;;;;6177906;23;20079;-65
2024/01/21 05:56:54;;;;;;;6.82;3.38;;;1.60;99.90;;;;;;6149911;23;20013;-66
2024/01/21 05:59:20;;;;;;;8.15;3.40;;;1.60;99.90;;;;;;6145337;23;20192;-66
2024/01/21 06:01:49;;;;;;;8.25;3.15;;;1.60;99.90;;;;;;6175614;23;20081;-66
2024/01/21 06:04:18;;;;;;;5.97;3.30;;;1.60;99.90;;;;;;6176342;23;20021;-65
2024/01/21 06:06:44;;;;;;;7.45;3.60;;;1.50;99.90;;;;;;6178136;23;20021;-66
2024/01/21 06:09:10;;;;;;;6.00;3.13;;;1.50;99.90;;;;;;6177566;23;20031;-64
2024/01/21 06:11:35;;;;;;;6.15;3.80;;;1.50;99.90;;;;;;6149673;23;20028;-66
2024/01/21 06:14:01;;;;;;;8.40;3.95;;;1.50;99.90;;;;;;6150670;23;20448;-66
2024/01/21 06:16:27;;;;;;;6.45;3.60;;;1.50;99.90;;;;;;6147493;23;20527;-66
2024/01/21 06:18:52;;;;;;;8.45;3.40;;;1.50;99.90;;;;;;6148428;23;20103;-66
2024/01/21 06:21:18;;;;;;;6.82;3.47;;;1.50;99.90;;;;;;6177690;23;20055;-66
2024/01/21 06:23:45;;;;;;;5.53;3.22;;;1.50;99.90;;;;;;6176887;23;20028;-66
2024/01/21 06:26:20;;;;;;;7.70;3.30;;;1.50;99.90;;;;;;6150166;23;20033;-66
2024/01/21 06:28:55;;;;;;;7.15;4.50;;;1.50;99.90;;;;;;6176617;23;20033;-66
2024/01/21 06:31:20;;;;;;;6.78;3.90;;;1.50;99.90;;;;;;6151097;23;20024;-66
2024/01/21 06:33:46;;;;;;;8.10;4.45;;;1.50;99.90;;;;;;6174864;23;20043;-66
2024/01/21 06:36:12;;;;;;;7.70;3.78;;;1.40;99.90;;;;;;6150336;23;20320;-66
2024/01/21 06:38:41;;;;;;;5.57;3.00;;;1.40;99.90;;;;;;6176565;23;20240;-66
2024/01/21 06:41:06;;;;;;;7.75;3.80;;;1.40;99.90;;;;;;6150476;23;20036;-66
2024/01/21 06:43:32;;;;;;;7.85;3.83;;;1.40;99.90;;;;;;6151756;23;20017;-66
2024/01/21 06:45:58;;;;;;;6.30;3.83;;;1.40;99.90;;;;;;6176112;23;20024;-66
2024/01/21 06:48:23;;;;;;;8.02;3.90;;;1.40;99.90;;;;;;6150606;23;20045;-66
2024/01/21 06:50:50;;;;;;;9.23;3.95;;;1.50;99.90;;;;;;6177716;23;20032;-66
2024/01/21 06:53:16;;;;;;;9.15;4.07;;;1.50;99.90;;;;;;6150612;23;20021;-66
2024/01/21 06:55:44;;;;;;;6.57;3.47;;;1.50;99.90;;;;;;6150170;23;20615;-66
2024/01/21 06:58:09;;;;;;;6.63;3.83;;;1.50;99.90;;;;;;6151283;23;20017;-67
2024/01/21 07:00:35;;;;;;;8.75;3.83;;;1.50;99.90;;;;;;6142124;23;20469;-67
2024/01/21 07:03:01;;;;;;;10.25;4.20;;;1.50;99.90;;;;;;6177282;23;20017;-66
2024/01/21 07:05:26;;;;;;;7.88;3.85;;;1.50;99.90;;;;;;6149701;23;20128;-66
2024/01/21 07:07:52;;;;;;;8.80;4.53;;;1.50;99.90;;;;;;6148928;23;20401;-66
2024/01/21 07:10:18;;;;;;;9.23;4.38;;;1.50;99.90;;;;;;6151160;23;20021;-67
2024/01/21 07:12:44;;;;;;;7.20;4.10;;;1.60;99.90;;;;;;6148570;23;20160;-67
2024/01/21 07:15:09;;;;;;;9.18;3.80;;;1.60;99.90;;;;;;6149345;23;20438;-67
2024/01/21 07:17:35;;;;;;;11.55;4.95;;;1.60;99.90;;;;;;6150427;23;20024;-65
2024/01/21 07:20:02;;;;;;;8.98;4.43;;;1.60;99.90;;;;;;6175969;23;20013;-65
2024/01/21 07:22:28;;;;;;;8.88;4.72;;;1.60;99.90;;;;;;6150053;23;20036;-66
2024/01/21 07:24:53;;;;;;;8.40;4.47;;;1.60;99.90;;;;;;6176464;23;20021;-67
2024/01/21 07:27:19;;;;;;;10.25;4.40;;;1.60;99.90;;;;;;6149431;23;20021;-66
2024/01/21 07:29:44;;;;;;;8.80;4.82;;;1.60;99.90;;;;;;6150652;23;20063;-66
2024/01/21 07:32:10;;;;;;;8.65;4.07;;;1.60;99.90;;;;;;6176176;23;20044;-66
2024/01/21 07:34:36;;;;;;;7.07;4.25;;;1.70;99.90;;;;;;6174654;23;20013;-66
2024/01/21 07:37:02;;;;;;;8.95;5.03;;;1.60;99.90;;;;;;6150093;23;20060;-66
2024/01/21 07:39:27;;;;;;;10.88;5.35;;;1.70;99.90;;;;;;6177169;23;20104;-66
2024/01/21 07:41:53;;;;;;;11.32;5.50;;;1.70;99.90;;;;;;6149795;23;20021;-67
2024/01/21 07:44:19;;;;;;;10.00;4.88;;;1.70;99.90;;;;;;6148542;23;20099;-66
2024/01/21 07:46:48;;;;;;;8.52;4.32;;;1.70;99.90;;;;;;6149926;23;20021;-67
2024/01/21 07:49:13;;;;;;;8.85;4.43;;;1.70;99.90;;;;;;6149674;23;20450;-67
2024/01/21 07:51:39;;;;;;;7.93;4.30;;;1.80;99.90;;;;;;6177400;23;20024;-67
2024/01/21 07:54:05;;;;;;;10.18;5.30;;;1.80;99.90;;;;;;6174975;23;20020;-66
2024/01/21 07:56:30;;;;;;;8.05;4.47;;;1.80;99.90;;;;;;6149227;23;20025;-66
2024/01/21 07:58:56;;;;;;;8.50;4.75;;;1.80;99.90;;;;;;6143651;23;20025;-67
2024/01/21 08:01:24;;;;;;;9.75;5.05;;;1.80;99.90;;;;;;6175975;23;20025;-67
2024/01/21 08:03:49;;;;;;;10.52;5.85;;;1.70;99.90;;;;;;6148780;23;20048;-67
2024/01/21 08:06:15;;;;;;;10.60;5.97;;;1.70;99.90;;;;;;6175330;23;20796;-67
2024/01/21 08:08:41;;;;;;;10.93;5.90;;;1.70;99.90;;;;;;6149167;23;20319;-67
2024/01/21 08:11:07;;;;;;;13.30;6.03;;;1.70;99.90;;;;;;6175431;23;20469;-67
2024/01/21 08:13:33;;;;;;;8.68;5.05;;;1.70;99.90;;;;;;6149178;23;20024;-67
2024/01/21 08:15:59;;;;;;;10.98;5.57;;;1.70;99.90;;;;;;6174965;23;20023;-67
2024/01/21 08:18:25;;;;;;;8.80;5.20;;;1.70;99.90;;;;;;6176670;23;20021;-67
2024/01/21 08:20:51;;;;;;;10.90;5.95;;;1.70;99.90;;;;;;6175886;23;20021;-67
2024/01/21 08:23:16;;;;;;;11.05;6.00;;;1.70;99.90;;;;;;6177515;23;20025;-67
2024/01/21 08:25:42;;;;;;;12.40;6.43;;;1.70;99.90;;;;;;6146695;23;20021;-67
2024/01/21 08:28:08;;;;;;;8.35;5.00;;;1.70;99.90;;;;;;6176484;23;20024;-67
2024/01/21 08:30:34;;;;;;;9.35;5.38;;;1.70;99.90;;;;;;6175129;23;20561;-70
2024/01/21 08:32:59;;;;;;;9.43;5.28;;;1.70;99.90;;;;;;6176190;23;20498;-67
2024/01/21 08:35:25;;;;;;;11.77;6.18;;;1.70;99.90;;;;;;6174601;23;20083;-68
2024/01/21 08:37:50;;;;;;;10.55;5.55;;;1.70;99.90;;;;;;6150458;23;20029;-67
2024/01/21 08:40:16;;;;;;;9.70;5.68;;;1.80;99.90;;;;;;6176573;23;20104;-67
2024/01/21 08:42:42;;;;;;;13.27;5.90;;;1.80;99.90;;;;;;6150861;23;20417;-67
2024/01/21 08:45:08;;;;;;;11.60;6.35;;;1.80;99.90;;;;;;6149007;23;20052;-68
2024/01/21 08:47:34;;;;;;;10.48;5.43;;;1.80;99.90;;;;;;6174090;23;20031;-67
2024/01/21 08:50:00;;;;;;;15.00;7.85;;;1.80;99.90;;;;;;6176816;23;20021;-67
2024/01/21 08:52:26;;;;;;;11.10;6.03;;;1.80;99.90;;;;;;6176107;23;20076;-67
2024/01/21 08:54:52;;;;;;;17.35;7.82;;;1.80;99.90;;;;;;6174831;23;20029;-68
2024/01/21 08:57:18;;;;;;;12.93;6.90;;;1.90;99.90;;;;;;6149603;23;20048;-68
2024/01/21 08:59:44;;;;;;;15.30;7.10;;;1.90;99.90;;;;;;6143805;23;20382;-68
2024/01/21 09:02:09;;;;;;;16.67;7.30;;;1.90;99.90;;;;;;6149513;23;20087;-68
2024/01/21 09:04:40;;;;;;;9.85;4.82;;;2.00;99.90;;;;;;6173954;23;20492;-67
2024/01/21 09:07:06;;;;;;;14.10;6.82;;;2.00;99.90;;;;;;6172120;23;20520;-67
2024/01/21 09:09:32;;;;;;;9.57;5.40;;;2.00;99.90;;;;;;6148440;23;20029;-66
2024/01/21 09:11:58;;;;;;;10.65;5.78;;;2.10;99.90;;;;;;6174512;23;20013;-66
2024/01/21 09:14:24;;;;;;;10.95;5.95;;;2.20;99.90;;;;;;6149571;23;20056;-67
2024/01/21 09:16:50;;;;;;;10.00;5.30;;;2.20;99.90;;;;;;6148742;23;20020;-67
2024/01/21 09:19:15;;;;;;;10.18;5.25;;;2.30;99.90;;;;;;6176743;23;20025;-66
2024/01/21 09:21:41;;;;;;;10.55;5.50;;;2.30;99.90;;;;;;6176383;23;20050;-67
2024/01/21 09:24:07;;;;;;;10.45;6.00;;;2.40;99.90;;;;;;6178238;23;20854;-68
2024/01/21 09:26:34;;;;;;;10.73;5.97;;;2.40;99.90;;;;;;6177101;23;20076;-67
2024/01/21 09:28:59;;;;;;;9.80;5.75;;;2.40;99.90;;;;;;6149494;23;20134;-67
2024/01/21 09:31:25;;;;;;;11.02;5.53;;;2.40;99.90;;;;;;6175731;23;20025;-67
2024/01/21 09:33:51;;;;;;;11.93;5.90;;;2.50;99.90;;;;;;6149104;23;20017;-67
2024/01/21 09:36:17;;;;;;;10.57;5.93;;;2.50;99.90;;;;;;6151568;23;20055;-67
2024/01/21 09:38:43;;;;;;;10.40;5.47;;;2.50;99.90;;;;;;6152210;23;20021;-67
2024/01/21 09:41:17;;;;;;;10.63;6.35;;;2.40;99.90;;;;;;6176971;23;20021;-67
2024/01/21 09:43:44;;;;;;;12.23;7.03;;;2.50;99.90;;;;;;6176272;23;20017;-67
2024/01/21 09:46:12;;;;;;;11.82;6.40;;;2.50;99.90;;;;;;6149300;23;20021;-67
2024/01/21 09:48:38;;;;;;;10.40;5.78;;;2.50;99.90;;;;;;6175014;23;20025;-68
2024/01/21 09:51:06;;;;;;;13.23;6.80;;;2.50;99.90;;;;;;6176808;23;20059;-67
2024/01/21 09:53:32;;;;;;;9.73;6.00;;;2.60;99.90;;;;;;6178650;23;20009;-67
2024/01/21 09:56:07;;;;;;;9.88;6.10;;;2.60;99.90;;;;;;6150912;23;20017;-66
2024/01/21 09:58:46;;;;;;;10.60;5.90;;;2.50;99.90;;;;;;6145713;23;20025;-67
2024/01/21 10:01:12;;;;;;;10.75;5.80;;;2.50;99.90;;;;;;6176791;23;20037;-67
2024/01/21 10:03:39;;;;;;;14.93;6.38;;;2.50;99.90;;;;;;6149487;23;20101;-67
2024/01/21 10:06:05;;;;;;;11.25;5.93;;;2.50;99.90;;;;;;6176485;23;20021;-67
2024/01/21 10:08:31;;;;;;;11.52;6.15;;;2.60;99.90;;;;;;6147348;23;20009;-67
2024/01/21 10:11:02;;;;;;;12.50;6.50;;;2.60;99.90;;;;;;6146938;23;20036;-66
2024/01/21 10:13:30;;;;;;;10.43;6.47;;;2.70;99.90;;;;;;6173798;23;20024;-66
2024/01/21 10:15:57;;;;;;;10.45;5.90;;;2.70;99.90;;;;;;6146145;23;20041;-66
2024/01/21 10:18:23;;;;;;;12.77;6.25;;;2.70;99.90;;;;;;6146927;23;20024;-69
2024/01/21 10:20:48;;;;;;;12.05;6.90;;;2.70;99.90;;;;;;6149425;23;20428;-66
2024/01/21 10:23:14;;;;;;;16.55;7.07;;;2.80;99.90;;;;;;6149214;23;20091;-66
2024/01/21 10:25:43;;;;;;;10.60;6.32;;;2.80;99.90;;;;;;6177092;23;20029;-66
2024/01/21 10:28:12;;;;;;;10.35;6.50;;;2.80;99.90;;;;;;6150054;23;20570;-66
2024/01/21 10:30:47;;;;;;;11.10;5.63;;;2.90;99.90;;;;;;6145037;23;20021;-67
2024/01/21 10:33:13;;;;;;;14.50;7.47;;;2.90;99.90;;;;;;6174138;23;20040;-66
2024/01/21 10:35:40;;;;;;;11.75;6.55;;;2.90;99.90;;;;;;6175848;23;20021;-67
2024/01/21 10:38:11;;;;;;;13.77;6.97;;;2.90;99.90;;;;;;6172684;23;20021;-66
2024/01/21 10:40:44;;;;;;;10.48;6.60;;;3.00;99.90;;;;;;6147059;23;20107;-66
2024/01/21 10:43:14;;;;;;;11.80;6.88;;;3.00;99.90;;;;;;6149619;23;20029;-66
2024/01/21 10:45:45;;;;;;;12.68;6.65;;;3.00;99.90;;;;;;6146855;23;20116;-65
2024/01/21 10:48:13;;;;;;;11.90;6.80;;;3.10;99.90;;;;;;6147145;23;20401;-66
2024/01/21 10:50:43;;;;;;;13.93;7.43;;;3.10;99.90;;;;;;6147407;23;20501;-66
2024/01/21 10:53:12;;;;;;;18.13;7.10;;;3.10;99.90;;;;;;6174704;23;20013;-65
2024/01/21 10:55:41;;;;;;;19.55;7.22;;;3.20;99.90;;;;;;6148050;23;20017;-65
2024/01/21 10:58:08;;;;;;;13.50;7.70;;;3.20;99.90;;;;;;6147271;23;20106;-66
2024/01/21 11:00:35;;;;;;;14.10;7.60;;;3.20;99.90;;;;;;6168042;23;20605;-66
2024/01/21 11:03:33;;;;;;;12.63;7.70;;;3.20;99.90;;;;;;6176377;23;20013;-66
2024/01/21 11:06:05;;;;;;;15.15;6.90;;;3.20;99.90;;;;;;6150819;23;20032;-65
2024/01/21 11:08:31;;;;;;;11.45;6.85;;;3.20;99.90;;;;;;6176538;23;20168;-65
2024/01/21 11:11:02;;;;;;;12.75;7.43;;;3.20;99.90;;;;;;6175356;23;20013;-66
2024/01/21 11:13:46;;;;;;;15.15;7.00;;;3.20;99.90;;;;;;6145544;23;20025;-66
2024/01/21 11:16:25;;;;;;;12.88;7.22;;;3.20;99.90;;;;;;6173672;23;20052;-66
2024/01/21 11:18:56;;;;;;;15.68;7.90;;;3.10;99.90;;;;;;6149654;23;20585;-66
2024/01/21 11:21:24;;;;;;;14.98;7.28;;;3.20;99.90;;;;;;6149010;23;20044;-66
2024/01/21 11:23:59;;;;;;;11.52;7.80;;;3.20;99.90;;;;;;6147891;23;20105;-66
2024/01/21 11:26:28;;;;;;;13.55;7.50;;;3.30;99.90;;;;;;6148189;23;20025;-66
2024/01/21 11:29:00;;;;;;;13.60;7.65;;;3.30;99.90;;;;;;6171978;23;20039;-66
2024/01/21 11:31:26;;;;;;;12.57;8.30;;;3.30;99.90;;;;;;6148347;23;20461;-66
2024/01/21 11:34:11;;;;;;;16.08;8.57;;;3.30;99.90;;;;;;6172450;23;20068;-66
2024/01/21 11:36:40;;;;;;;16.67;9.23;;;3.30;99.90;;;;;;6146480;23;20364;-66
2024/01/21 11:39:08;;;;;;;18.00;9.40;;;3.30;99.90;;;;;;6169005;23;20025;-66
2024/01/21 11:41:40;;;;;;;16.25;8.00;;;3.30;99.90;;;;;;6171696;23;20025;-66
2024/01/21 11:44:22;;;;;;;17.75;9.10;;;3.30;99.90;;;;;;6172813;23;20259;-66
2024/01/21 11:46:49;;;;;;;15.33;7.80;;;3.30;99.90;;;;;;6176214;23;20104;-66
2024/01/21 11:49:15;;;;;;;17.52;8.15;;;3.30;99.90;;;;;;6173433;23;20016;-66
2024/01/21 11:51:42;;;;;;;20.13;9.70;;;3.40;99.90;;;;;;6172153;23;20588;-66
2024/01/21 11:54:08;;;;;;;18.98;9.68;;;3.40;99.90;;;;;;6146100;23;20045;-67
2024/01/21 11:56:37;;;;;;;18.40;10.38;;;3.40;99.90;;;;;;6173784;23;20017;-68
2024/01/21 11:59:09;;;;;;;15.65;8.82;;;3.40;99.90;;;;;;6166845;23;20382;-66
2024/01/21 12:01:39;;;;;;;25.02;9.15;;;3.40;99.90;;;;;;6143388;23;20552;-68
2024/01/21 12:04:06;;;;;;;17.90;9.25;;;3.40;99.90;;;;;;6144947;23;20021;-67
2024/01/21 12:06:34;;;;;;;22.52;10.60;;;3.40;99.90;;;;;;6173544;23;20017;-67
2024/01/21 12:09:01;;;;;;;18.95;10.73;;;3.50;99.90;;;;;;6143945;23;20021;-65
2024/01/21 12:11:30;;;;;;;20.42;11.25;;;3.50;99.90;;;;;;6173062;23;20090;-67
2024/01/21 12:13:57;;;;;;;28.58;11.85;;;3.50;99.90;;;;;;6145583;23;20048;-66
2024/01/21 12:16:22;;;;;;;18.60;9.27;;;3.50;99.90;;;;;;6171086;23;20120;-66
2024/01/21 12:18:48;;;;;;;30.33;12.05;;;3.50;99.90;;;;;;6146422;23;20122;-66
2024/01/21 12:21:14;;;;;;;24.15;12.10;;;3.60;99.90;;;;;;6173249;23;20109;-65
2024/01/21 12:23:42;;;;;;;26.08;9.80;;;3.60;99.90;;;;;;6172110;23;20091;-66
2024/01/21 12:26:08;;;;;;;20.35;10.15;;;3.60;99.90;;;;;;6146393;23;20021;-66
2024/01/21 12:28:33;;;;;;;17.25;10.10;;;3.60;99.90;;;;;;6171291;23;20653;-66
2024/01/21 12:30:59;;;;;;;15.52;9.75;;;3.70;99.90;;;;;;6171415;23;20087;-66
2024/01/21 12:33:26;;;;;;;20.00;9.15;;;3.70;99.90;;;;;;6145598;23;20020;-66
2024/01/21 12:35:52;;;;;;;17.42;9.50;;;3.70;99.90;;;;;;6146848;23;20080;-66
2024/01/21 12:38:18;;;;;;;19.10;9.90;;;3.70;99.90;;;;;;6170474;23;20133;-66
2024/01/21 12:40:44;;;;;;;17.48;9.15;;;3.70;99.90;;;;;;6171880;23;20028;-66
2024/01/21 12:43:10;;;;;;;16.70;9.73;;;3.70;99.90;;;;;;6171096;23;20021;-67
2024/01/21 12:45:37;;;;;;;16.67;9.35;;;3.70;99.90;;;;;;6145554;23;20547;-66
2024/01/21 12:48:03;;;;;;;19.63;10.05;;;3.70;99.90;;;;;;6172833;23;20097;-66